ヌーク の空港の天気 - METARとTAF

ヌーク空港 ( BGGH / GOH ) - グリーンランド ヌーク
飛行場実況気象(Metar)
観測時間01/23 01:50 WGT (01/23 04:50 UTC)
風向・風速東 2m/s
視程-
天気現象
なし
気温-5℃
湿度58%
気圧993hPa
METARBGGH 230450Z AUTO 08003KT 9999NDV NCD M05/M12 Q0993
過去の天気等 Google飛行場航空写真 Wunderground天気予報

過去48時間のMETAR

飛行場予報(TAF)
発表時間: 1/22 17:05 WGT (1/22 20:05 UTC)
予報対象時間: 22日18時 WGT ~ 22日22時 WGT
風向・風速南東 3m/s
視程10km以上
全天の4割程度の雲 雲底高度 4,570m
全天の8割程度の雲 雲底高度 6,100m
TAF BGGH 222005Z 2221/2301 14006KT 9999 SCT150 BKN200